Time;durP1;ratioP1;P1;durP2;ratioP2;P2;SDS_P1;SDS_P2;PMS_P1;PMS_P2;Temp;Humidity;BMP_temperature;BMP_pressure;BME280_temperature;BME280_humidity;BME280_pressure;Samples;Min_cycle;Max_cycle;Signal;HPM_P1;HPM_P2
2021/12/19 00:00:14;;;;;;;2.00;0.73;;;31.20;96.40;;;;;;5071151;28;20197;-70
2021/12/19 00:03:08;;;;;;;2.87;0.93;;;31.20;96.40;;;;;;5068548;28;20547;-72
2021/12/19 00:11:00;;;;;;;1.30;0.65;;;31.30;96.70;;;;;;5067141;28;20222;-71
2021/12/19 00:13:27;;;;;;;2.05;0.88;;;31.20;96.80;;;;;;5068689;28;20545;-69
2021/12/19 00:15:56;;;;;;;2.05;0.90;;;31.20;96.80;;;;;;5070571;28;20614;-69
2021/12/19 00:18:23;;;;;;;2.35;0.60;;;31.10;96.80;;;;;;5069587;28;20186;-70
2021/12/19 00:20:51;;;;;;;1.35;0.60;;;31.10;96.70;;;;;;5071129;28;20265;-70
2021/12/19 00:23:19;;;;;;;4.47;0.73;;;31.10;96.50;;;;;;5069956;28;20206;-69
2021/12/19 00:25:46;;;;;;;6.23;0.77;;;31.20;96.70;;;;;;5070110;28;20285;-70
2021/12/19 00:28:14;;;;;;;2.20;0.90;;;31.40;96.90;;;;;;5070635;28;20308;-68
2021/12/19 00:30:41;;;;;;;3.42;0.90;;;31.40;96.10;;;;;;5074163;28;20225;-70
2021/12/19 00:33:08;;;;;;;1.53;0.70;;;31.50;96.40;;;;;;5069776;28;20653;-70
2021/12/19 00:35:36;;;;;;;3.63;1.07;;;31.60;96.30;;;;;;5067873;28;20216;-70
2021/12/19 00:38:04;;;;;;;6.33;0.77;;;31.70;96.60;;;;;;5071172;28;20443;-71
2021/12/19 00:40:32;;;;;;;2.17;1.00;;;31.90;96.50;;;;;;5069692;28;20179;-69
2021/12/19 00:43:10;;;;;;;1.10;0.80;;;31.90;96.30;;;;;;5069419;28;20736;-70
2021/12/19 00:45:40;;;;;;;0.90;0.60;;;31.90;95.80;;;;;;5069915;28;20185;-70
2021/12/19 00:48:09;;;;;;;3.47;1.05;;;31.90;96.00;;;;;;5068441;28;20641;-71
2021/12/19 00:50:37;;;;;;;0.98;0.88;;;31.90;95.60;;;;;;5052824;28;20545;-68
2021/12/19 00:53:06;;;;;;;3.43;0.87;;;32.10;95.90;;;;;;5070462;28;20185;-71
2021/12/19 00:55:34;;;;;;;2.65;0.80;;;32.40;96.00;;;;;;5068681;28;20227;-69
2021/12/19 00:58:01;;;;;;;4.63;0.90;;;32.70;95.80;;;;;;5071017;28;20189;-69
2021/12/19 01:00:31;;;;;;;4.85;0.70;;;32.80;95.30;;;;;;5069212;28;20195;-71
2021/12/19 01:03:00;;;;;;;1.73;0.70;;;32.70;94.60;;;;;;5067531;28;20186;-71
2021/12/19 01:05:34;;;;;;;6.43;0.95;;;32.60;94.90;;;;;;5071789;28;20180;-70
2021/12/19 01:08:02;;;;;;;1.58;0.82;;;32.60;95.10;;;;;;5072522;28;20522;-72
2021/12/19 01:10:30;;;;;;;1.58;0.70;;;32.70;95.10;;;;;;5073792;28;20261;-72
2021/12/19 01:12:57;;;;;;;3.97;0.68;;;32.80;95.60;;;;;;5073620;28;20202;-67
2021/12/19 01:15:25;;;;;;;2.17;0.80;;;33.00;94.50;;;;;;5073834;28;20214;-72
2021/12/19 01:17:52;;;;;;;1.77;0.85;;;33.10;94.10;;;;;;5071376;28;20190;-71
2021/12/19 01:20:23;;;;;;;3.17;0.77;;;33.60;94.80;;;;;;5073244;28;20183;-71
2021/12/19 01:22:52;;;;;;;2.05;0.70;;;34.00;93.40;;;;;;5074243;28;20183;-72
2021/12/19 01:25:20;;;;;;;3.65;0.90;;;34.10;93.10;;;;;;5071905;28;20179;-71
2021/12/19 01:27:48;;;;;;;1.48;0.70;;;34.40;93.10;;;;;;5056090;28;20191;-71
2021/12/19 01:30:16;;;;;;;3.85;0.73;;;34.50;92.80;;;;;;5073674;28;20221;-68
2021/12/19 01:32:45;;;;;;;2.90;0.70;;;34.60;91.50;;;;;;5074040;28;20653;-70
2021/12/19 01:35:15;;;;;;;1.83;0.70;;;34.70;91.90;;;;;;5072339;28;20187;-71
2021/12/19 01:37:43;;;;;;;3.22;0.52;;;34.90;90.80;;;;;;5074111;28;20241;-70
2021/12/19 01:40:13;;;;;;;4.82;0.47;;;34.60;91.00;;;;;;5056028;28;20189;-70
2021/12/19 01:42:42;;;;;;;1.75;0.70;;;34.30;90.80;;;;;;5073178;28;20590;-70
2021/12/19 01:45:21;;;;;;;3.30;0.68;;;34.00;90.80;;;;;;5073394;28;20187;-70
2021/12/19 01:47:49;;;;;;;2.85;0.65;;;34.00;90.90;;;;;;5068374;28;20694;-71
2021/12/19 01:50:17;;;;;;;1.05;0.60;;;34.00;90.40;;;;;;5073416;28;20552;-72
2021/12/19 01:52:48;;;;;;;0.82;0.50;;;34.10;90.80;;;;;;5073656;28;20186;-69
2021/12/19 01:55:15;;;;;;;1.65;0.80;;;34.30;90.50;;;;;;5072859;28;20239;-69
2021/12/19 01:57:44;;;;;;;2.80;0.70;;;34.10;90.50;;;;;;5072237;28;20274;-70
2021/12/19 02:00:24;;;;;;;1.10;0.60;;;34.20;90.90;;;;;;5069379;28;20669;-69
2021/12/19 02:02:53;;;;;;;1.20;0.73;;;34.00;90.40;;;;;;5073184;28;20187;-68
2021/12/19 02:05:21;;;;;;;2.05;0.50;;;33.80;90.00;;;;;;5073056;28;20668;-71
2021/12/19 02:07:53;;;;;;;1.60;0.60;;;33.50;90.00;;;;;;5073636;28;20642;-68
2021/12/19 02:10:27;;;;;;;1.73;1.00;;;33.70;90.00;;;;;;5072187;28;20669;-69
2021/12/19 02:12:56;;;;;;;1.73;0.70;;;33.80;90.10;;;;;;5069793;28;20842;-69
2021/12/19 02:15:27;;;;;;;0.55;0.47;;;33.90;88.80;;;;;;5071635;28;20183;-69
2021/12/19 02:17:57;;;;;;;1.60;0.60;;;33.90;88.70;;;;;;5069882;28;20187;-69
2021/12/19 02:20:28;;;;;;;1.52;0.50;;;34.40;88.20;;;;;;5072988;28;20567;-68
2021/12/19 02:22:55;;;;;;;2.90;0.75;;;34.60;87.60;;;;;;5069864;28;20182;-70
2021/12/19 02:25:22;;;;;;;1.30;0.40;;;34.70;87.10;;;;;;5072056;28;20577;-68
2021/12/19 02:27:50;;;;;;;2.05;0.60;;;34.70;87.40;;;;;;5072927;28;20183;-68
2021/12/19 02:30:17;;;;;;;1.55;0.70;;;34.70;87.20;;;;;;5071945;28;20276;-67
2021/12/19 02:32:44;;;;;;;1.33;0.52;;;34.50;86.20;;;;;;5072627;28;20255;-70
2021/12/19 02:35:18;;;;;;;0.60;0.52;;;34.30;86.50;;;;;;5072139;28;20178;-68
2021/12/19 02:38:13;;;;;;;;;;;;;;;;;;;;;
2021/12/19 02:48:30;;;;;;;4.88;0.88;;;35.60;83.00;;;;;;5072881;28;20183;-67
2021/12/19 02:50:58;;;;;;;1.35;0.70;;;35.30;83.00;;;;;;5071910;28;20577;-67
2021/12/19 02:53:34;;;;;;;1.05;0.50;;;35.10;83.50;;;;;;5072494;28;20179;-68
2021/12/19 02:56:07;;;;;;;2.78;0.60;;;35.10;82.70;;;;;;5072165;28;20218;-70
2021/12/19 02:58:37;;;;;;;0.57;0.50;;;35.40;82.60;;;;;;5069304;28;20183;-68
2021/12/19 03:01:07;;;;;;;4.97;0.50;;;35.60;82.50;;;;;;5071926;28;20197;-67
2021/12/19 03:03:35;;;;;;;0.90;0.50;;;35.80;82.00;;;;;;5054234;28;20191;-66
2021/12/19 03:06:04;;;;;;;1.30;0.60;;;36.00;81.40;;;;;;5072077;28;20562;-66
2021/12/19 03:08:32;;;;;;;1.30;0.60;;;35.60;81.50;;;;;;5054230;28;20273;-70
2021/12/19 03:19:23;;;;;;;1.48;0.70;;;36.50;80.80;;;;;;5067548;28;20565;-69
2021/12/19 03:21:50;;;;;;;3.08;0.60;;;37.00;80.00;;;;;;5071774;28;20202;-68
2021/12/19 03:24:18;;;;;;;1.65;0.60;;;36.90;78.80;;;;;;5071609;28;20187;-68
2021/12/19 03:26:45;;;;;;;3.15;0.50;;;36.60;78.10;;;;;;5071297;28;20191;-69
2021/12/19 03:29:12;;;;;;;4.32;0.57;;;36.50;78.90;;;;;;5070836;28;20183;-68
2021/12/19 03:31:40;;;;;;;2.58;0.60;;;36.40;78.20;;;;;;5071175;28;20657;-69
2021/12/19 03:34:08;;;;;;;1.20;0.40;;;36.30;78.10;;;;;;5071466;28;20218;-67
2021/12/19 03:36:35;;;;;;;3.90;0.63;;;35.50;78.00;;;;;;5071657;28;20194;-70
2021/12/19 03:39:13;;;;;;;1.30;0.57;;;34.90;78.60;;;;;;5071575;28;20179;-68
2021/12/19 03:41:42;;;;;;;2.30;0.43;;;34.70;79.20;;;;;;5070118;28;20665;-71
2021/12/19 03:44:09;;;;;;;3.50;0.70;;;34.40;79.60;;;;;;5071187;28;20235;-70
2021/12/19 03:46:37;;;;;;;1.73;0.60;;;34.20;80.20;;;;;;5071572;28;20205;-67
2021/12/19 03:49:04;;;;;;;1.58;0.70;;;34.10;80.60;;;;;;5071562;28;20206;-69
2021/12/19 03:51:32;;;;;;;2.20;0.60;;;33.90;80.90;;;;;;5071271;28;20223;-70
2021/12/19 03:53:59;;;;;;;3.85;0.65;;;33.80;81.90;;;;;;5071181;28;20720;-69
2021/12/19 03:56:27;;;;;;;1.40;0.60;;;34.10;81.40;;;;;;5070901;28;20211;-67
2021/12/19 03:58:54;;;;;;;1.92;0.93;;;34.10;81.10;;;;;;5067730;28;20280;-70
2021/12/19 04:01:21;;;;;;;3.25;0.73;;;34.80;80.60;;;;;;5071380;28;20651;-68
2021/12/19 04:03:49;;;;;;;3.65;0.70;;;35.10;79.60;;;;;;5071056;28;20179;-68
2021/12/19 04:06:16;;;;;;;0.88;0.47;;;35.30;79.40;;;;;;5070848;28;20755;-69
2021/12/19 04:08:44;;;;;;;2.75;0.50;;;35.20;79.90;;;;;;5071448;28;20708;-68
2021/12/19 04:11:11;;;;;;;2.17;0.60;;;35.20;79.80;;;;;;5069653;28;20300;-71
2021/12/19 04:13:39;;;;;;;3.30;0.60;;;35.40;79.60;;;;;;5069719;28;20171;-68
2021/12/19 04:16:06;;;;;;;1.48;0.60;;;34.80;79.80;;;;;;5070700;28;20186;-68
2021/12/19 04:18:33;;;;;;;1.08;0.50;;;34.10;81.30;;;;;;5071544;28;20182;-68
2021/12/19 04:21:00;;;;;;;2.45;0.70;;;33.50;82.10;;;;;;5070339;28;20179;-68
2021/12/19 04:23:30;;;;;;;1.75;0.77;;;32.90;88.40;;;;;;5072083;28;20523;-69
2021/12/19 04:25:58;;;;;;;2.23;0.87;;;31.10;92.10;;;;;;5069646;28;20211;-70
2021/12/19 04:28:26;;;;;;;2.20;0.73;;;30.00;94.30;;;;;;5070880;28;20191;-72
2021/12/19 04:30:53;;;;;;;1.63;0.90;;;29.60;95.50;;;;;;5052032;28;20214;-71
2021/12/19 04:33:22;;;;;;;5.57;0.87;;;29.60;94.70;;;;;;5069738;28;20275;-70
2021/12/19 04:35:50;;;;;;;2.50;0.70;;;29.70;94.00;;;;;;5071063;28;20179;-72
2021/12/19 04:41:35;;;;;;;1.47;0.60;;;30.80;92.20;;;;;;5073828;28;20727;-71
2021/12/19 04:57:38;;;;;;;5.22;0.60;;;32.60;86.50;;;;;;5036431;28;20230;-70
2021/12/19 05:00:16;;;;;;;1.20;0.50;;;32.70;84.30;;;;;;5071107;28;20652;-68
2021/12/19 05:16:01;;;;;;;1.95;0.70;;;32.60;82.70;;;;;;5076195;28;21029;-68
2021/12/19 05:18:31;;;;;;;1.48;0.40;;;32.50;82.80;;;;;;5076487;28;20187;-72
2021/12/19 05:21:04;;;;;;;1.52;0.60;;;32.40;82.90;;;;;;5068688;28;20176;-70
2021/12/19 05:26:00;;;;;;;5.00;0.88;;;32.10;83.30;;;;;;5073408;28;20185;-68
2021/12/19 05:28:27;;;;;;;4.07;0.90;;;32.00;82.60;;;;;;5073483;28;20637;-70
2021/12/19 05:30:54;;;;;;;1.50;0.57;;;31.90;82.90;;;;;;5070578;28;20215;-68
2021/12/19 05:33:22;;;;;;;1.33;0.65;;;31.80;82.60;;;;;;5072792;28;20282;-70
2021/12/19 05:46:56;;;;;;;0.80;0.52;;;31.60;83.00;;;;;;5036548;28;20191;-66
2021/12/19 05:49:24;;;;;;;4.53;0.95;;;31.60;83.40;;;;;;5072364;28;20217;-71
2021/12/19 05:51:51;;;;;;;2.63;0.57;;;31.60;83.40;;;;;;5073125;28;20270;-70
2021/12/19 05:54:18;;;;;;;3.58;0.65;;;31.40;83.50;;;;;;5073721;28;20218;-68
2021/12/19 05:56:46;;;;;;;0.95;0.55;;;31.30;83.40;;;;;;5073062;28;20230;-72
2021/12/19 05:59:13;;;;;;;4.53;0.60;;;31.20;84.00;;;;;;5071097;28;20701;-71
2021/12/19 06:01:45;;;;;;;0.70;0.50;;;31.20;84.50;;;;;;5070083;28;20221;-72
2021/12/19 06:04:13;;;;;;;3.03;0.85;;;31.10;85.00;;;;;;5073932;28;20194;-69
2021/12/19 06:06:41;;;;;;;0.83;0.60;;;30.90;86.30;;;;;;5073564;28;20180;-70
2021/12/19 06:09:08;;;;;;;4.40;0.70;;;30.60;86.70;;;;;;5073024;28;20187;-70
2021/12/19 06:11:36;;;;;;;2.03;0.80;;;30.40;86.10;;;;;;5075902;28;20222;-68
2021/12/19 06:14:03;;;;;;;2.10;0.70;;;30.40;86.60;;;;;;5074670;28;20179;-69
2021/12/19 06:16:31;;;;;;;1.37;0.50;;;30.40;87.70;;;;;;5073217;28;20186;-69
2021/12/19 06:18:58;;;;;;;2.80;0.60;;;30.10;87.70;;;;;;5072779;28;20190;-69
2021/12/19 06:21:26;;;;;;;2.70;0.67;;;29.90;88.90;;;;;;5072906;28;20194;-69
2021/12/19 06:23:53;;;;;;;5.03;0.87;;;29.70;89.00;;;;;;5070621;28;20179;-70
2021/12/19 06:26:20;;;;;;;2.30;0.70;;;29.50;90.10;;;;;;5073553;28;20187;-67
2021/12/19 06:28:48;;;;;;;0.90;0.60;;;29.30;89.60;;;;;;5071856;28;20649;-72
2021/12/19 06:31:17;;;;;;;1.53;0.70;;;29.10;89.90;;;;;;5070189;28;20219;-68
2021/12/19 06:33:45;;;;;;;2.13;0.60;;;28.90;90.40;;;;;;5071656;28;20286;-70
2021/12/19 06:36:13;;;;;;;3.40;0.60;;;28.80;90.10;;;;;;5072601;28;20241;-69
2021/12/19 06:38:40;;;;;;;1.50;0.70;;;28.70;89.80;;;;;;5054978;28;20195;-74
2021/12/19 06:41:07;;;;;;;1.77;0.50;;;28.70;89.10;;;;;;5071045;28;20211;-66
2021/12/19 06:43:35;;;;;;;2.67;0.60;;;28.80;88.00;;;;;;5077512;28;20201;-68
2021/12/19 06:46:02;;;;;;;3.30;0.80;;;28.90;88.60;;;;;;5072221;28;20290;-71
2021/12/19 06:48:30;;;;;;;1.37;0.53;;;29.00;88.70;;;;;;5072866;28;20221;-67
2021/12/19 06:50:57;;;;;;;1.80;1.00;;;28.90;88.80;;;;;;5074286;28;20643;-71
2021/12/19 06:53:24;;;;;;;0.77;0.40;;;28.80;89.10;;;;;;5072845;28;20214;-68
2021/12/19 06:55:54;;;;;;;1.90;0.60;;;28.80;89.00;;;;;;5071734;28;20305;-71
2021/12/19 06:58:22;;;;;;;3.03;0.83;;;28.90;88.70;;;;;;5052468;28;20179;-67
2021/12/19 07:00:49;;;;;;;1.27;0.50;;;29.00;87.80;;;;;;5070930;28;20629;-72
2021/12/19 07:03:20;;;;;;;0.47;0.40;;;29.00;88.00;;;;;;5071679;28;20180;-70
2021/12/19 07:05:47;;;;;;;1.17;0.63;;;29.00;88.00;;;;;;5072223;28;20244;-70
2021/12/19 07:08:14;;;;;;;0.90;0.60;;;29.00;88.00;;;;;;5071993;28;20641;-70
2021/12/19 07:10:42;;;;;;;5.40;0.70;;;29.00;88.10;;;;;;5067987;28;20268;-70
2021/12/19 07:13:09;;;;;;;2.10;0.67;;;29.00;88.90;;;;;;5071495;28;20189;-71
2021/12/19 07:15:37;;;;;;;3.23;0.60;;;29.00;89.20;;;;;;5072217;28;20187;-71
2021/12/19 07:18:06;;;;;;;1.33;0.50;;;28.90;89.20;;;;;;5074589;28;20175;-71
2021/12/19 07:20:34;;;;;;;0.87;0.47;;;28.90;89.60;;;;;;5068052;28;20206;-71
2021/12/19 07:23:01;;;;;;;2.60;0.70;;;28.80;89.40;;;;;;5071624;28;20273;-70
2021/12/19 07:25:29;;;;;;;1.87;0.57;;;28.90;89.30;;;;;;5073110;28;20181;-70
2021/12/19 07:27:56;;;;;;;1.37;0.70;;;28.90;89.40;;;;;;5072796;28;20210;-70
2021/12/19 07:30:25;;;;;;;3.50;0.63;;;28.80;89.20;;;;;;5071207;28;20225;-70
2021/12/19 07:32:55;;;;;;;0.80;0.60;;;28.80;89.40;;;;;;5077435;28;20185;-72
2021/12/19 07:35:26;;;;;;;1.33;0.70;;;28.80;89.80;;;;;;5071725;28;20187;-70
2021/12/19 07:37:55;;;;;;;0.87;0.53;;;28.70;90.00;;;;;;5071162;28;20183;-70
2021/12/19 07:40:24;;;;;;;1.80;0.93;;;28.80;90.30;;;;;;5071343;28;20183;-68
2021/12/19 07:42:52;;;;;;;2.80;0.90;;;28.70;90.30;;;;;;5071021;28;20210;-70
2021/12/19 07:45:20;;;;;;;3.97;0.97;;;28.40;91.70;;;;;;5071122;28;20278;-69
2021/12/19 07:47:47;;;;;;;2.73;1.20;;;27.40;94.20;;;;;;5067892;28;20231;-69
2021/12/19 07:50:15;;;;;;;2.20;0.73;;;26.40;96.30;;;;;;5071266;28;20292;-70
2021/12/19 07:52:43;;;;;;;1.00;0.50;;;26.00;96.80;;;;;;5071411;28;20175;-69
2021/12/19 07:55:10;;;;;;;2.07;0.70;;;26.00;96.90;;;;;;5070191;28;20696;-68
2021/12/19 07:57:38;;;;;;;3.70;0.80;;;26.10;97.20;;;;;;5069780;28;20194;-70
2021/12/19 08:00:07;;;;;;;2.27;0.53;;;26.20;97.10;;;;;;5070498;28;20183;-69
2021/12/19 08:02:34;;;;;;;1.10;0.70;;;26.30;97.10;;;;;;5071730;28;20210;-70
2021/12/19 08:05:02;;;;;;;3.90;0.97;;;26.30;97.10;;;;;;5075721;28;20179;-70
2021/12/19 08:07:30;;;;;;;2.30;0.90;;;26.20;97.10;;;;;;5071255;28;20554;-71
2021/12/19 08:10:01;;;;;;;5.83;1.00;;;26.30;97.20;;;;;;5070598;28;20566;-70
2021/12/19 08:12:29;;;;;;;2.80;0.90;;;26.30;97.30;;;;;;5070550;28;20916;-70
2021/12/19 08:14:56;;;;;;;4.03;0.90;;;26.40;97.00;;;;;;5071991;28;20175;-71
2021/12/19 08:17:23;;;;;;;3.33;1.00;;;26.40;96.80;;;;;;5072581;28;20191;-71
2021/12/19 08:19:51;;;;;;;3.17;0.90;;;26.40;96.80;;;;;;5073347;28;20672;-71
2021/12/19 08:22:20;;;;;;;1.90;0.70;;;26.40;96.80;;;;;;5071571;28;20570;-70
2021/12/19 08:24:49;;;;;;;3.20;0.80;;;26.40;96.50;;;;;;5070781;28;20179;-69
2021/12/19 08:27:17;;;;;;;0.70;0.60;;;26.40;95.10;;;;;;5070424;28;20592;-70
2021/12/19 08:29:46;;;;;;;1.77;0.73;;;26.60;93.00;;;;;;5066881;28;20260;-70
2021/12/19 08:32:13;;;;;;;2.30;0.50;;;26.70;92.40;;;;;;5070639;28;20221;-70
2021/12/19 08:34:41;;;;;;;1.23;0.50;;;26.50;92.60;;;;;;5075221;28;20707;-69
2021/12/19 08:37:08;;;;;;;1.77;0.63;;;26.10;93.90;;;;;;5070781;28;20175;-69
2021/12/19 08:39:38;;;;;;;1.13;0.50;;;25.90;94.10;;;;;;5075042;28;20541;-71
2021/12/19 08:42:09;;;;;;;2.33;0.80;;;25.90;93.60;;;;;;5070433;28;20604;-70
2021/12/19 08:44:37;;;;;;;3.00;0.77;;;26.00;93.60;;;;;;5068924;28;20218;-72
2021/12/19 08:47:06;;;;;;;2.27;0.90;;;26.00;93.60;;;;;;5069947;28;20615;-72
2021/12/19 08:49:34;;;;;;;1.87;0.80;;;26.00;94.00;;;;;;5067393;28;20667;-72
2021/12/19 08:52:03;;;;;;;1.23;0.70;;;26.00;94.20;;;;;;5067943;28;20606;-72
2021/12/19 08:54:30;;;;;;;5.93;1.03;;;26.00;94.80;;;;;;5071250;28;20219;-73
2021/12/19 08:56:58;;;;;;;2.30;0.60;;;25.90;95.20;;;;;;5070585;28;20179;-71
2021/12/19 08:59:28;;;;;;;6.80;0.90;;;25.90;95.10;;;;;;5069812;28;20233;-71
2021/12/19 09:02:01;;;;;;;2.47;0.50;;;25.90;95.10;;;;;;5070506;28;20198;-73
2021/12/19 09:04:30;;;;;;;1.93;0.80;;;25.80;94.90;;;;;;5070074;28;20335;-73
2021/12/19 09:06:59;;;;;;;2.10;0.70;;;25.70;97.20;;;;;;5070867;28;20184;-73
2021/12/19 09:09:27;;;;;;;4.10;0.80;;;25.50;98.30;;;;;;5053153;28;20179;-71
2021/12/19 09:11:54;;;;;;;2.53;0.97;;;25.40;98.80;;;;;;5070252;28;20588;-72
2021/12/19 09:14:21;;;;;;;7.70;0.93;;;25.20;99.10;;;;;;5070593;28;20189;-72
2021/12/19 09:16:49;;;;;;;3.20;0.80;;;25.10;99.30;;;;;;5070998;28;20198;-68
2021/12/19 09:19:17;;;;;;;1.10;0.47;;;25.10;98.80;;;;;;5074271;28;20174;-72
2021/12/19 09:21:44;;;;;;;3.30;0.70;;;25.00;98.40;;;;;;5073592;28;20202;-73
2021/12/19 09:24:11;;;;;;;2.57;0.90;;;25.00;98.50;;;;;;5072215;28;20183;-71
2021/12/19 09:26:40;;;;;;;4.20;0.80;;;24.90;98.10;;;;;;5073624;28;20194;-72
2021/12/19 09:29:07;;;;;;;1.50;0.60;;;24.90;98.20;;;;;;5073976;28;20550;-69
2021/12/19 09:31:35;;;;;;;1.50;0.60;;;24.90;97.80;;;;;;5076624;28;20219;-73
2021/12/19 09:34:03;;;;;;;2.50;0.80;;;24.80;97.10;;;;;;5074820;28;20185;-71
2021/12/19 09:36:30;;;;;;;1.37;0.70;;;24.80;96.40;;;;;;5073678;28;20191;-72
2021/12/19 09:38:58;;;;;;;1.77;0.60;;;24.80;96.30;;;;;;5074266;28;20183;-71
2021/12/19 09:41:30;;;;;;;0.80;0.60;;;24.80;96.20;;;;;;5073263;28;20179;-72
2021/12/19 09:44:03;;;;;;;1.10;0.73;;;24.80;96.10;;;;;;5074086;28;20232;-68
2021/12/19 09:46:38;;;;;;;0.93;0.40;;;24.80;95.80;;;;;;5073676;28;20194;-72
2021/12/19 09:49:13;;;;;;;0.83;0.50;;;24.70;96.00;;;;;;5070881;28;20236;-67
2021/12/19 09:51:42;;;;;;;0.83;0.63;;;24.70;96.00;;;;;;5073419;28;20217;-71
2021/12/19 09:54:10;;;;;;;1.17;0.57;;;24.70;96.00;;;;;;5073828;28;20615;-72
2021/12/19 09:56:39;;;;;;;0.90;0.60;;;24.70;95.90;;;;;;5072920;28;20198;-72
2021/12/19 09:59:19;;;;;;;2.57;0.53;;;24.70;96.00;;;;;;5071702;28;20222;-70
2021/12/19 10:01:49;;;;;;;0.93;0.60;;;24.70;95.90;;;;;;5072551;28;20183;-71
2021/12/19 10:04:34;;;;;;;2.27;0.60;;;24.60;96.00;;;;;;5074651;28;20180;-68
2021/12/19 10:07:18;;;;;;;0.83;0.53;;;24.60;95.80;;;;;;5072155;28;20206;-71
2021/12/19 10:09:56;;;;;;;0.43;0.40;;;24.60;96.00;;;;;;5070877;28;20198;-70
2021/12/19 10:15:07;;;;;;;1.33;0.50;;;24.50;96.10;;;;;;5076962;28;20262;-71
2021/12/19 10:17:35;;;;;;;0.53;0.43;;;24.50;96.20;;;;;;5073458;28;20175;-72
2021/12/19 10:20:06;;;;;;;1.20;0.50;;;24.50;96.30;;;;;;5073295;28;20207;-69
2021/12/19 10:22:39;;;;;;;1.70;0.70;;;24.50;96.30;;;;;;5074544;28;20232;-71
2021/12/19 10:25:14;;;;;;;1.23;0.50;;;24.40;96.30;;;;;;5072614;28;20191;-71
2021/12/19 10:27:44;;;;;;;2.00;0.60;;;24.40;96.50;;;;;;5068224;28;20186;-72
2021/12/19 10:30:19;;;;;;;0.87;0.43;;;24.40;96.60;;;;;;5070738;28;20289;-71
2021/12/19 10:33:05;;;;;;;0.90;0.60;;;24.40;96.80;;;;;;5075851;28;20190;-71
2021/12/19 10:35:34;;;;;;;3.80;0.67;;;24.30;96.70;;;;;;5071631;28;20183;-71
2021/12/19 10:38:04;;;;;;;0.77;0.60;;;24.30;97.00;;;;;;5072671;28;20230;-72
2021/12/19 10:40:32;;;;;;;0.43;0.43;;;24.20;97.00;;;;;;5072860;28;20191;-71
2021/12/19 10:43:04;;;;;;;1.17;0.50;;;24.30;97.10;;;;;;5072818;28;20256;-71
2021/12/19 10:45:33;;;;;;;5.30;1.27;;;24.20;97.20;;;;;;5072765;28;20195;-67
2021/12/19 10:48:11;;;;;;;1.23;0.60;;;24.20;97.40;;;;;;5073404;28;20701;-72
2021/12/19 10:50:43;;;;;;;0.47;0.47;;;24.20;97.60;;;;;;5072414;28;20222;-72
2021/12/19 10:53:12;;;;;;;2.20;0.83;;;24.20;97.60;;;;;;5065586;28;20187;-71
2021/12/19 10:55:44;;;;;;;1.47;0.70;;;24.10;97.90;;;;;;5073621;28;20227;-72
2021/12/19 10:58:31;;;;;;;2.10;0.70;;;24.10;97.90;;;;;;5072286;28;20171;-72
2021/12/19 11:01:31;;;;;;;0.93;0.73;;;24.10;97.90;;;;;;5071783;28;20786;-71
2021/12/19 11:04:13;;;;;;;1.93;0.77;;;24.00;98.20;;;;;;5064803;28;20199;-71
2021/12/19 11:06:42;;;;;;;1.13;0.50;;;24.00;98.30;;;;;;5073479;28;20175;-71
2021/12/19 11:09:22;;;;;;;1.50;0.60;;;24.00;98.30;;;;;;5073943;28;20184;-71
2021/12/19 11:12:05;;;;;;;1.80;0.80;;;24.00;98.50;;;;;;5075499;28;20229;-72
2021/12/19 11:14:39;;;;;;;1.63;0.97;;;24.00;98.50;;;;;;5067157;28;20186;-72
2021/12/19 11:17:16;;;;;;;1.03;0.70;;;24.00;98.70;;;;;;5071697;28;20671;-71
2021/12/19 11:19:44;;;;;;;1.60;0.63;;;24.00;98.90;;;;;;5072484;28;20186;-71
2021/12/19 11:22:13;;;;;;;1.30;0.60;;;24.00;98.80;;;;;;5070875;28;20187;-71
2021/12/19 11:24:40;;;;;;;0.50;0.50;;;23.90;98.90;;;;;;5072572;28;20538;-71
2021/12/19 11:27:09;;;;;;;2.07;0.80;;;23.90;99.10;;;;;;5071743;28;20191;-71
2021/12/19 11:29:36;;;;;;;1.07;0.70;;;23.90;99.10;;;;;;5070392;28;20172;-72
2021/12/19 11:32:08;;;;;;;1.53;0.63;;;23.90;99.30;;;;;;5071223;28;20187;-71
2021/12/19 11:35:00;;;;;;;1.90;0.70;;;23.80;99.60;;;;;;5066837;28;20294;-70
2021/12/19 11:38:06;;;;;;;1.27;0.70;;;23.80;99.70;;;;;;5071372;28;20194;-71
2021/12/19 11:40:36;;;;;;;1.90;0.70;;;23.80;99.60;;;;;;5071893;28;20596;-71
2021/12/19 11:43:14;;;;;;;1.53;0.70;;;23.70;99.80;;;;;;5071687;28;20310;-71
2021/12/19 11:45:56;;;;;;;3.10;0.80;;;23.70;99.90;;;;;;5069561;28;20179;-70
2021/12/19 11:48:32;;;;;;;1.00;0.67;;;23.70;99.90;;;;;;5071333;28;20605;-71
2021/12/19 11:51:02;;;;;;;4.83;0.90;;;23.70;99.90;;;;;;5068636;28;20231;-71
2021/12/19 11:53:35;;;;;;;3.33;0.60;;;23.70;99.90;;;;;;5054074;28;20649;-70
2021/12/19 11:56:09;;;;;;;2.30;0.60;;;23.70;99.90;;;;;;5067997;28;20368;-71
2021/12/19 11:58:49;;;;;;;1.60;0.47;;;23.70;99.90;;;;;;5068942;28;20175;-71
2021/12/19 12:01:22;;;;;;;1.80;0.80;;;23.60;99.90;;;;;;5069857;28;20178;-70
2021/12/19 12:03:53;;;;;;;1.10;0.80;;;23.60;99.90;;;;;;5071123;28;20183;-70
2021/12/19 12:06:22;;;;;;;1.77;0.80;;;23.60;99.90;;;;;;5071144;28;20179;-70
2021/12/19 12:09:12;;;;;;;0.97;0.50;;;23.60;99.90;;;;;;5071719;28;20626;-71
2021/12/19 12:12:00;;;;;;;2.60;0.60;;;23.60;99.90;;;;;;5068331;28;20222;-70
2021/12/19 12:14:31;;;;;;;1.20;0.60;;;23.60;99.90;;;;;;5071454;28;20270;-71
2021/12/19 12:17:04;;;;;;;3.60;0.80;;;23.60;99.90;;;;;;5070467;28;20187;-71
2021/12/19 12:19:51;;;;;;;1.33;0.60;;;23.60;99.90;;;;;;5071436;28;20183;-70
2021/12/19 12:22:38;;;;;;;2.20;0.80;;;23.60;99.90;;;;;;5069404;28;21450;-71
2021/12/19 12:25:11;;;;;;;2.87;0.90;;;23.50;99.90;;;;;;5071462;28;20182;-70
2021/12/19 12:27:52;;;;;;;2.83;0.93;;;23.50;99.90;;;;;;5071488;28;20190;-70
2021/12/19 12:30:45;;;;;;;1.40;0.60;;;23.50;99.90;;;;;;5074660;28;20246;-70
2021/12/19 12:33:16;;;;;;;1.90;0.90;;;23.50;99.90;;;;;;5072916;28;20216;-70
2021/12/19 12:35:47;;;;;;;3.23;0.97;;;23.50;99.90;;;;;;5075275;28;20175;-70
2021/12/19 12:38:15;;;;;;;2.57;0.70;;;23.50;99.90;;;;;;5076916;28;20187;-71
2021/12/19 12:40:56;;;;;;;1.93;0.73;;;23.50;99.90;;;;;;5084240;28;20187;-70
2021/12/19 12:43:32;;;;;;;4.17;1.63;;;23.40;99.90;;;;;;5083747;28;20179;-72
2021/12/19 12:46:07;;;;;;;4.10;0.80;;;23.40;99.90;;;;;;5083612;28;20181;-72
2021/12/19 12:49:01;;;;;;;0.50;0.50;;;23.40;99.90;;;;;;5083509;28;20626;-71
2021/12/19 12:51:31;;;;;;;3.53;0.90;;;23.40;99.90;;;;;;5084872;28;20222;-71
2021/12/19 12:54:09;;;;;;;1.20;0.87;;;23.40;99.90;;;;;;5085521;28;20179;-72
2021/12/19 12:56:45;;;;;;;4.57;1.20;;;23.40;99.90;;;;;;5080071;28;20186;-71
2021/12/19 12:59:14;;;;;;;2.17;0.70;;;23.40;99.90;;;;;;5078069;28;20190;-71
2021/12/19 13:01:48;;;;;;;1.13;0.80;;;23.30;99.90;;;;;;5075334;28;20183;-71
2021/12/19 13:04:24;;;;;;;0.80;0.73;;;23.30;99.90;;;;;;5073930;28;20178;-71
2021/12/19 13:07:00;;;;;;;2.23;1.07;;;23.30;99.90;;;;;;5074833;28;20206;-71
2021/12/19 13:09:36;;;;;;;2.30;0.70;;;23.30;99.90;;;;;;5075084;28;20660;-70
2021/12/19 13:12:07;;;;;;;4.10;0.60;;;23.30;99.90;;;;;;5074624;28;20282;-70
2021/12/19 13:14:41;;;;;;;5.03;1.70;;;23.30;99.90;;;;;;5074559;28;20183;-70
2021/12/19 13:17:14;;;;;;;2.20;0.80;;;23.20;99.90;;;;;;5074240;28;20179;-71
2021/12/19 13:20:03;;;;;;;1.73;0.70;;;23.20;99.90;;;;;;5074430;28;20179;-70
2021/12/19 13:22:35;;;;;;;6.33;0.63;;;23.20;99.90;;;;;;5056899;28;20655;-70
2021/12/19 13:25:41;;;;;;;1.13;0.57;;;23.20;99.90;;;;;;5074293;28;20262;-70
2021/12/19 13:28:20;;;;;;;2.03;0.80;;;23.20;99.90;;;;;;5076789;28;20210;-70
2021/12/19 13:30:47;;;;;;;1.33;0.60;;;23.10;99.90;;;;;;5072853;28;20237;-70
2021/12/19 13:33:18;;;;;;;1.67;0.70;;;23.10;99.90;;;;;;5073197;28;20609;-71
2021/12/19 13:35:56;;;;;;;2.97;0.70;;;23.10;99.90;;;;;;5073031;28;20183;-71
2021/12/19 13:38:25;;;;;;;2.10;0.60;;;23.10;99.90;;;;;;5073458;28;20175;-71
2021/12/19 13:40:53;;;;;;;2.23;0.60;;;23.20;99.90;;;;;;5074186;28;20637;-70
2021/12/19 13:43:25;;;;;;;4.83;0.80;;;23.10;99.90;;;;;;5075400;28;20194;-71
2021/12/19 13:45:57;;;;;;;1.90;0.90;;;23.00;99.90;;;;;;5073897;28;20187;-71
2021/12/19 13:48:49;;;;;;;1.60;0.70;;;23.00;99.90;;;;;;5073909;28;20677;-71
2021/12/19 13:51:20;;;;;;;2.67;0.90;;;23.00;99.90;;;;;;5060482;28;20238;-71
2021/12/19 13:53:53;;;;;;;3.80;0.80;;;23.00;99.90;;;;;;5073562;28;20236;-70
2021/12/19 13:56:26;;;;;;;5.23;1.20;;;23.00;99.90;;;;;;5073800;28;20199;-71
2021/12/19 13:59:03;;;;;;;0.73;0.50;;;23.00;99.90;;;;;;5074592;28;20183;-70
2021/12/19 14:01:38;;;;;;;2.17;0.70;;;23.00;99.90;;;;;;5066586;28;20178;-70
2021/12/19 14:04:19;;;;;;;1.57;0.60;;;23.10;99.90;;;;;;5074374;28;20596;-70
2021/12/19 14:06:49;;;;;;;1.53;0.50;;;23.00;99.90;;;;;;5073748;28;20193;-71
2021/12/19 14:09:22;;;;;;;1.33;0.70;;;23.00;99.90;;;;;;5073299;28;20630;-72
2021/12/19 14:12:01;;;;;;;0.77;0.43;;;23.00;99.90;;;;;;5075831;28;20735;-70
2021/12/19 14:14:31;;;;;;;4.77;1.10;;;23.10;99.90;;;;;;5076311;28;20640;-70